createdAt,value
2023-03-26T00:00:26.296Z,0.00
2023-03-26T00:01:26.248Z,0.00
2023-03-26T00:02:26.306Z,0.00
2023-03-26T00:03:26.107Z,0.00
2023-03-26T00:04:26.030Z,0.00
2023-03-26T00:05:25.974Z,0.00
2023-03-26T00:06:25.941Z,0.00
2023-03-26T00:07:25.838Z,0.00
2023-03-26T00:08:25.762Z,0.00
2023-03-26T00:09:25.692Z,0.00
2023-03-26T00:10:25.633Z,0.00
2023-03-26T00:11:25.570Z,0.00
2023-03-26T00:12:25.512Z,0.00
2023-03-26T00:13:25.437Z,0.00
2023-03-26T00:14:25.363Z,0.00
2023-03-26T00:15:25.292Z,0.00
2023-03-26T00:16:25.242Z,0.00
2023-03-26T00:17:25.216Z,0.00
2023-03-26T00:18:25.085Z,0.00
2023-03-26T00:19:25.023Z,0.00
2023-03-26T00:20:24.953Z,0.00
2023-03-26T00:21:24.892Z,0.00
2023-03-26T00:22:24.828Z,0.00
2023-03-26T00:23:24.764Z,0.00
2023-03-26T00:24:24.690Z,0.00
2023-03-26T00:25:24.620Z,0.00
2023-03-26T00:26:24.551Z,0.00
2023-03-26T00:27:24.491Z,0.00
2023-03-26T00:28:24.427Z,0.00
2023-03-26T00:29:24.357Z,0.00
2023-03-26T00:30:24.290Z,0.00
2023-03-26T00:31:24.228Z,0.00
2023-03-26T00:32:24.169Z,0.00
2023-03-26T00:33:24.089Z,0.00
2023-03-26T00:34:24.022Z,0.00
2023-03-26T00:35:23.963Z,0.00
2023-03-26T00:36:23.910Z,0.00
2023-03-26T00:37:23.823Z,0.00
2023-03-26T00:38:23.757Z,0.00
2023-03-26T00:39:23.694Z,0.00
2023-03-26T00:40:23.621Z,0.00
2023-03-26T00:41:23.562Z,0.00
2023-03-26T00:42:23.509Z,0.00
2023-03-26T00:43:23.421Z,0.00
2023-03-26T00:44:23.374Z,0.00
2023-03-26T00:45:23.288Z,0.00
2023-03-26T00:46:23.244Z,0.00
2023-03-26T00:47:23.155Z,0.00
2023-03-26T00:48:31.533Z,0.00
2023-03-26T00:49:23.027Z,0.00
2023-03-26T00:50:22.963Z,0.00
2023-03-26T00:51:22.891Z,0.00
2023-03-26T00:52:22.824Z,0.00
2023-03-26T00:53:22.753Z,0.00
2023-03-26T00:54:22.683Z,0.00
2023-03-26T00:55:22.619Z,0.00
2023-03-26T00:56:22.556Z,0.00
2023-03-26T00:57:34.523Z,0.00
2023-03-26T00:58:22.499Z,0.00
2023-03-26T00:59:22.366Z,0.00
2023-03-26T01:00:22.289Z,0.00
2023-03-26T01:01:22.288Z,0.00
2023-03-26T01:02:22.213Z,0.00
2023-03-26T01:03:26.603Z,0.00
2023-03-26T01:04:22.159Z,0.00
2023-03-26T01:05:21.961Z,0.00
2023-03-26T01:06:21.892Z,0.00
2023-03-26T01:07:21.815Z,0.00
2023-03-26T01:08:21.750Z,0.00
2023-03-26T01:09:21.680Z,0.00
2023-03-26T01:10:21.613Z,0.00
2023-03-26T01:11:21.548Z,0.00
2023-03-26T01:12:21.478Z,0.00
2023-03-26T01:13:21.413Z,0.00
2023-03-26T01:14:21.348Z,0.00
2023-03-26T01:15:21.284Z,0.00
2023-03-26T01:16:21.268Z,0.00
2023-03-26T01:17:21.148Z,0.00
2023-03-26T01:18:21.078Z,0.00
2023-03-26T01:19:21.013Z,0.00
2023-03-26T01:20:20.946Z,0.00
2023-03-26T01:21:20.877Z,0.00
2023-03-26T01:22:20.818Z,0.00
2023-03-26T01:23:20.744Z,0.00
2023-03-26T01:24:20.689Z,0.00
2023-03-26T01:25:20.609Z,0.00
2023-03-26T01:26:20.549Z,0.00
2023-03-26T01:27:20.470Z,0.00
2023-03-26T01:28:20.417Z,0.00
2023-03-26T01:29:20.339Z,0.00
2023-03-26T01:30:20.273Z,0.00
2023-03-26T01:31:20.215Z,0.00
2023-03-26T01:32:20.172Z,0.00
2023-03-26T01:33:20.135Z,0.00
2023-03-26T01:34:20.007Z,0.00
2023-03-26T01:35:19.996Z,0.00
2023-03-26T01:36:19.882Z,0.00
2023-03-26T01:37:19.802Z,0.00
2023-03-26T01:38:19.732Z,0.00
2023-03-26T01:39:19.671Z,0.00
2023-03-26T01:40:19.604Z,0.00
2023-03-26T01:41:19.544Z,0.00
2023-03-26T01:42:19.471Z,0.00
2023-03-26T01:43:19.404Z,0.00
2023-03-26T01:44:19.332Z,0.00
2023-03-26T01:45:19.264Z,0.00
2023-03-26T01:46:19.252Z,0.00
2023-03-26T01:47:19.137Z,0.00
2023-03-26T01:48:19.068Z,0.00
2023-03-26T01:49:19.011Z,0.00
2023-03-26T01:50:18.933Z,0.00
2023-03-26T01:51:18.875Z,0.00
2023-03-26T01:52:18.794Z,0.00
2023-03-26T01:53:18.737Z,0.00
2023-03-26T01:54:18.663Z,0.00
2023-03-26T01:55:18.619Z,0.00
2023-03-26T01:56:18.547Z,0.00
2023-03-26T01:57:18.471Z,0.00
2023-03-26T01:58:18.397Z,0.00
2023-03-26T01:59:18.333Z,0.00
2023-03-26T02:00:18.288Z,0.00
2023-03-26T02:01:18.215Z,0.00
2023-03-26T02:02:18.237Z,0.00
2023-03-26T02:03:18.543Z,0.00
2023-03-26T02:04:17.992Z,0.00
2023-03-26T02:05:17.928Z,0.00
2023-03-26T02:06:17.869Z,0.00
2023-03-26T02:07:17.807Z,0.00
2023-03-26T02:08:17.723Z,0.00
2023-03-26T02:09:17.671Z,0.00
2023-03-26T02:10:17.595Z,0.00
2023-03-26T02:11:17.536Z,0.00
2023-03-26T02:12:17.463Z,0.00
2023-03-26T02:13:17.392Z,0.00
2023-03-26T02:14:17.324Z,0.00
2023-03-26T02:15:17.273Z,0.00
2023-03-26T02:16:17.222Z,0.00
2023-03-26T02:17:17.121Z,0.00
2023-03-26T02:18:17.053Z,0.00
2023-03-26T02:19:16.984Z,0.00
2023-03-26T02:20:16.920Z,0.00
2023-03-26T02:21:16.855Z,0.00
2023-03-26T02:22:16.784Z,0.00
2023-03-26T02:23:16.717Z,0.00
2023-03-26T02:24:16.649Z,0.00
2023-03-26T02:25:16.583Z,0.00
2023-03-26T02:26:16.518Z,0.00
2023-03-26T02:27:16.449Z,0.00
2023-03-26T02:28:16.383Z,0.00
2023-03-26T02:29:16.321Z,0.00
2023-03-26T02:30:16.264Z,0.00
2023-03-26T02:31:16.237Z,0.00
2023-03-26T02:32:16.113Z,0.00
2023-03-26T02:33:16.047Z,0.00
2023-03-26T02:34:15.981Z,0.00
2023-03-26T02:35:15.993Z,0.00
2023-03-26T02:36:15.935Z,0.00
2023-03-26T02:37:15.777Z,0.00
2023-03-26T02:38:15.729Z,0.00
2023-03-26T02:39:15.647Z,0.00
2023-03-26T02:40:15.592Z,0.00
2023-03-26T02:41:15.511Z,0.00
2023-03-26T02:42:15.446Z,0.00
2023-03-26T02:43:15.380Z,0.00
2023-03-26T02:44:15.310Z,0.00
2023-03-26T02:45:15.242Z,0.00
2023-03-26T02:46:15.215Z,0.00
2023-03-26T02:47:15.111Z,0.00
2023-03-26T02:48:15.044Z,0.00
2023-03-26T02:49:14.973Z,0.00
2023-03-26T02:50:14.906Z,0.00
2023-03-26T02:51:14.843Z,0.00
2023-03-26T02:52:14.779Z,0.00
2023-03-26T02:53:14.704Z,0.00
2023-03-26T02:54:14.644Z,0.00
2023-03-26T02:55:14.583Z,0.00
2023-03-26T02:56:14.506Z,0.00
2023-03-26T02:57:14.550Z,0.00
2023-03-26T02:58:14.375Z,0.00
2023-03-26T02:59:14.307Z,0.00
2023-03-26T03:00:14.236Z,0.00
2023-03-26T03:01:14.223Z,0.00
2023-03-26T03:02:14.150Z,0.00
2023-03-26T03:03:14.097Z,0.00
2023-03-26T03:04:13.979Z,0.00
2023-03-26T03:05:13.908Z,0.00
2023-03-26T03:06:13.838Z,0.00
2023-03-26T03:07:13.764Z,0.00
2023-03-26T03:08:13.716Z,0.00
2023-03-26T03:09:13.633Z,0.00
2023-03-26T03:10:13.569Z,0.00
2023-03-26T03:11:14.841Z,0.00
2023-03-26T03:12:13.435Z,0.00
2023-03-26T03:13:13.364Z,0.00
2023-03-26T03:14:13.296Z,0.00
2023-03-26T03:15:13.229Z,0.00
2023-03-26T03:16:13.212Z,0.00
2023-03-26T03:17:13.089Z,0.00
2023-03-26T03:18:13.053Z,0.00
2023-03-26T03:19:12.982Z,0.00
2023-03-26T03:20:12.895Z,0.00
2023-03-26T03:21:12.840Z,0.00
2023-03-26T03:22:12.761Z,0.00
2023-03-26T03:23:12.704Z,0.00
2023-03-26T03:24:12.636Z,0.00
2023-03-26T03:25:12.560Z,0.00
2023-03-26T03:26:12.496Z,0.00
2023-03-26T03:27:12.433Z,0.00
2023-03-26T03:28:12.364Z,0.00
2023-03-26T03:29:12.301Z,0.00
2023-03-26T03:30:12.229Z,0.00
2023-03-26T03:31:12.202Z,0.00
2023-03-26T03:32:12.090Z,0.00
2023-03-26T03:33:12.029Z,0.00
2023-03-26T03:34:11.964Z,0.00
2023-03-26T03:35:11.901Z,0.00
2023-03-26T03:36:19.804Z,0.00
2023-03-26T03:37:11.759Z,0.00
2023-03-26T03:38:11.716Z,0.00
2023-03-26T03:39:11.624Z,0.00
2023-03-26T03:40:11.556Z,0.00
2023-03-26T03:41:11.491Z,0.00
2023-03-26T03:42:11.425Z,0.00
2023-03-26T03:43:11.354Z,0.00
2023-03-26T03:44:11.289Z,0.00
2023-03-26T03:45:11.224Z,0.00
2023-03-26T03:46:11.202Z,0.00
2023-03-26T03:47:11.087Z,0.00
2023-03-26T03:48:11.016Z,0.00
2023-03-26T03:49:10.951Z,0.00
2023-03-26T03:50:10.908Z,0.00
2023-03-26T03:51:10.814Z,0.00
2023-03-26T03:52:10.759Z,0.00
2023-03-26T03:53:10.679Z,0.00
2023-03-26T03:54:10.619Z,0.00
2023-03-26T03:55:10.644Z,0.00
2023-03-26T03:56:20.920Z,0.00
2023-03-26T03:58:17.622Z,0.00
2023-03-26T03:59:17.233Z,0.00
2023-03-26T04:01:13.260Z,0.00
2023-03-26T04:02:13.176Z,0.00
2023-03-26T04:03:13.143Z,0.00
2023-03-26T04:04:13.163Z,0.00
2023-03-26T04:05:12.921Z,0.00
2023-03-26T04:06:12.865Z,0.00
2023-03-26T04:07:12.789Z,0.00
2023-03-26T04:08:12.730Z,0.00
2023-03-26T04:09:12.654Z,0.00
2023-03-26T04:10:12.597Z,0.00
2023-03-26T04:11:12.519Z,0.00
2023-03-26T04:12:12.458Z,0.00
2023-03-26T04:13:12.381Z,0.00
2023-03-26T04:14:12.326Z,0.00
2023-03-26T04:15:12.280Z,0.00
2023-03-26T04:16:12.221Z,0.00
2023-03-26T04:17:12.135Z,0.00
2023-03-26T04:18:12.077Z,0.00
2023-03-26T04:19:11.995Z,0.00
2023-03-26T04:20:11.910Z,0.00
2023-03-26T04:21:11.864Z,0.00
2023-03-26T04:22:11.773Z,0.00
2023-03-26T04:23:11.745Z,0.00
2023-03-26T04:24:11.660Z,0.00
2023-03-26T04:25:11.597Z,0.00
2023-03-26T04:26:11.514Z,0.00
2023-03-26T04:27:11.626Z,0.00
2023-03-26T04:28:11.366Z,0.00
2023-03-26T04:29:11.309Z,0.00
2023-03-26T04:30:11.231Z,0.00
2023-03-26T04:31:11.217Z,0.00
2023-03-26T04:32:11.099Z,0.00
2023-03-26T04:33:11.042Z,0.00
2023-03-26T04:34:10.965Z,0.00
2023-03-26T04:35:10.900Z,0.00
2023-03-26T04:36:10.892Z,0.00
2023-03-26T04:37:10.766Z,0.00
2023-03-26T04:38:10.698Z,0.00
2023-03-26T04:39:10.627Z,0.00
2023-03-26T04:40:10.562Z,0.00
2023-03-26T04:41:10.495Z,0.00
2023-03-26T04:42:10.437Z,0.00
2023-03-26T04:43:10.367Z,0.00
2023-03-26T04:44:10.294Z,0.00
2023-03-26T04:45:10.225Z,0.00
2023-03-26T04:46:10.161Z,0.00
2023-03-26T04:47:10.109Z,0.00
2023-03-26T04:48:10.024Z,0.00
2023-03-26T04:49:09.958Z,0.00
2023-03-26T04:50:09.891Z,0.00
2023-03-26T04:51:09.846Z,0.00
2023-03-26T04:52:09.756Z,0.00
2023-03-26T04:53:09.689Z,0.00
2023-03-26T04:54:09.628Z,0.00
2023-03-26T04:55:09.571Z,0.00
2023-03-26T04:56:09.486Z,0.00
2023-03-26T04:57:09.455Z,0.00
2023-03-26T04:58:09.356Z,0.00
2023-03-26T04:59:09.298Z,0.00
2023-03-26T05:00:09.225Z,0.00
2023-03-26T05:01:10.498Z,0.00
2023-03-26T05:02:09.074Z,0.00
2023-03-26T05:03:09.036Z,0.00
2023-03-26T05:04:08.980Z,0.00
2023-03-26T05:05:08.876Z,0.00
2023-03-26T05:06:08.817Z,0.00
2023-03-26T05:07:08.744Z,0.00
2023-03-26T05:08:08.681Z,0.00
2023-03-26T05:09:08.604Z,0.00
2023-03-26T05:10:08.539Z,0.00
2023-03-26T05:11:08.475Z,0.00
2023-03-26T05:12:08.413Z,0.00
2023-03-26T05:13:08.335Z,0.00
2023-03-26T05:14:08.277Z,0.00
2023-03-26T05:15:08.204Z,0.00
2023-03-26T05:16:08.168Z,0.00
2023-03-26T05:17:08.071Z,0.00
2023-03-26T05:18:08.132Z,0.00
2023-03-26T05:19:07.938Z,0.00
2023-03-26T05:20:07.868Z,0.00
2023-03-26T05:21:07.801Z,0.00
2023-03-26T05:22:07.733Z,0.00
2023-03-26T05:23:07.663Z,0.00
2023-03-26T05:24:07.597Z,0.00
2023-03-26T05:25:07.537Z,5.63
2023-03-26T05:26:07.469Z,5.63
2023-03-26T05:27:07.400Z,5.63
2023-03-26T05:28:07.331Z,5.63
2023-03-26T05:29:07.263Z,5.63
2023-03-26T05:30:07.207Z,5.63
2023-03-26T05:31:07.134Z,5.63
2023-03-26T05:32:07.060Z,5.63
2023-03-26T05:33:07.060Z,5.63
2023-03-26T05:34:06.930Z,5.63
2023-03-26T05:35:06.861Z,5.63
2023-03-26T05:36:06.792Z,5.63
2023-03-26T05:37:06.746Z,5.63
2023-03-26T05:38:06.682Z,5.63
2023-03-26T05:39:06.613Z,5.63
2023-03-26T05:40:06.535Z,5.63
2023-03-26T05:41:06.450Z,11.25
2023-03-26T05:42:06.387Z,11.25
2023-03-26T05:43:06.338Z,11.25
2023-03-26T05:44:06.253Z,11.25
2023-03-26T05:45:06.185Z,11.25
2023-03-26T05:46:06.171Z,11.25
2023-03-26T05:47:06.073Z,11.25
2023-03-26T05:48:06.014Z,11.25
2023-03-26T05:49:05.919Z,11.25
2023-03-26T05:50:05.864Z,11.25
2023-03-26T05:51:05.797Z,11.25
2023-03-26T05:52:05.718Z,11.25
2023-03-26T05:53:05.666Z,11.25
2023-03-26T05:54:05.582Z,11.25
2023-03-26T05:55:05.567Z,11.25
2023-03-26T05:56:05.515Z,11.25
2023-03-26T05:57:05.413Z,16.88
2023-03-26T05:58:05.316Z,16.88
2023-03-26T05:59:05.243Z,16.88
2023-03-26T06:00:05.182Z,11.25
2023-03-26T06:01:05.137Z,11.25
2023-03-26T06:02:05.049Z,11.25
2023-03-26T06:03:05.101Z,11.25
2023-03-26T06:04:04.975Z,16.88
2023-03-26T06:05:04.846Z,16.88
2023-03-26T06:06:04.808Z,22.50
2023-03-26T06:07:04.714Z,22.50
2023-03-26T06:08:04.645Z,22.50
2023-03-26T06:09:04.597Z,28.13
2023-03-26T06:10:04.512Z,28.13
2023-03-26T06:11:04.449Z,28.13
2023-03-26T06:12:04.382Z,28.13
2023-03-26T06:13:04.310Z,28.13
2023-03-26T06:14:04.243Z,28.13
2023-03-26T06:15:04.181Z,28.13
2023-03-26T06:16:04.157Z,22.50
2023-03-26T06:17:04.050Z,22.50
2023-03-26T06:18:04.037Z,22.50
2023-03-26T06:19:03.963Z,16.88
2023-03-26T06:20:03.841Z,16.88
2023-03-26T06:21:03.771Z,16.88
2023-03-26T06:22:03.712Z,16.88
2023-03-26T06:23:03.661Z,22.50
2023-03-26T06:24:03.574Z,22.50
2023-03-26T06:25:03.510Z,22.50
2023-03-26T06:26:03.441Z,22.50
2023-03-26T06:27:03.370Z,22.50
2023-03-26T06:28:03.302Z,22.50
2023-03-26T06:29:03.244Z,22.50
2023-03-26T06:30:03.185Z,22.50
2023-03-26T06:31:03.126Z,22.50
2023-03-26T06:32:16.313Z,22.50
2023-03-26T06:33:03.018Z,22.50
2023-03-26T06:34:02.903Z,22.50
2023-03-26T06:35:02.836Z,22.50
2023-03-26T06:36:02.793Z,22.50
2023-03-26T06:37:02.715Z,22.50
2023-03-26T06:38:02.651Z,22.50
2023-03-26T06:39:07.833Z,16.88
2023-03-26T06:40:02.528Z,22.50
2023-03-26T06:41:02.440Z,22.50
2023-03-26T06:42:02.410Z,22.50
2023-03-26T06:43:09.022Z,22.50
2023-03-26T06:44:02.252Z,22.50
2023-03-26T06:45:02.176Z,22.50
2023-03-26T06:46:02.116Z,22.50
2023-03-26T06:47:02.077Z,22.50
2023-03-26T06:48:01.987Z,28.13
2023-03-26T06:49:01.907Z,28.13
2023-03-26T06:50:01.843Z,28.13
2023-03-26T06:51:01.783Z,28.13
2023-03-26T06:52:01.717Z,28.13
2023-03-26T06:53:01.645Z,28.13
2023-03-26T06:54:01.583Z,28.13
2023-03-26T06:55:01.513Z,28.13
2023-03-26T06:56:01.440Z,22.50
2023-03-26T06:57:01.396Z,22.50
2023-03-26T06:58:01.318Z,22.50
2023-03-26T06:59:01.246Z,22.50
2023-03-26T07:00:01.217Z,22.50
2023-03-26T07:01:01.138Z,22.50
2023-03-26T07:02:01.040Z,22.50
2023-03-26T07:03:01.041Z,22.50
2023-03-26T07:04:00.925Z,22.50
2023-03-26T07:05:00.843Z,22.50
2023-03-26T07:06:00.783Z,22.50
2023-03-26T07:07:00.703Z,22.50
2023-03-26T07:08:00.647Z,16.88
2023-03-26T07:09:00.576Z,16.88
2023-03-26T07:10:00.508Z,22.50
2023-03-26T07:11:00.447Z,22.50
2023-03-26T07:12:00.389Z,22.50
2023-03-26T07:13:00.322Z,22.50
2023-03-26T07:14:00.236Z,22.50
2023-03-26T07:15:00.425Z,16.88
2023-03-26T07:16:00.143Z,16.88
2023-03-26T07:17:00.054Z,16.88
2023-03-26T07:17:59.998Z,16.88
2023-03-26T07:18:59.899Z,16.88
2023-03-26T07:19:59.837Z,16.88
2023-03-26T07:20:59.771Z,16.88
2023-03-26T07:21:59.704Z,16.88
2023-03-26T07:22:59.641Z,16.88
2023-03-26T07:23:59.569Z,22.50
2023-03-26T07:24:59.515Z,22.50
2023-03-26T07:25:59.437Z,22.50
2023-03-26T07:26:59.368Z,22.50
2023-03-26T07:27:59.304Z,22.50
2023-03-26T07:29:04.822Z,22.50
2023-03-26T07:29:59.173Z,22.50
2023-03-26T07:30:59.254Z,22.50
2023-03-26T07:31:59.064Z,16.88
2023-03-26T07:32:58.997Z,16.88
2023-03-26T07:33:58.914Z,16.88
2023-03-26T07:34:58.837Z,16.88
2023-03-26T07:35:58.817Z,16.88
2023-03-26T07:36:58.713Z,16.88
2023-03-26T07:37:58.633Z,16.88
2023-03-26T07:38:58.563Z,11.25
2023-03-26T07:39:58.523Z,11.25
2023-03-26T07:40:58.435Z,11.25
2023-03-26T07:41:58.365Z,11.25
2023-03-26T07:42:58.319Z,16.88
2023-03-26T07:43:58.239Z,16.88
2023-03-26T07:44:58.165Z,16.88
2023-03-26T07:45:58.114Z,16.88
2023-03-26T07:46:58.044Z,16.88
2023-03-26T07:47:58.040Z,16.88
2023-03-26T07:48:57.896Z,16.88
2023-03-26T07:49:57.996Z,16.88
2023-03-26T07:50:57.762Z,22.50
2023-03-26T07:51:57.700Z,22.50
2023-03-26T07:52:57.633Z,22.50
2023-03-26T07:53:57.561Z,22.50
2023-03-26T07:54:57.502Z,22.50
2023-03-26T07:55:57.432Z,22.50
2023-03-26T07:56:59.011Z,22.50
2023-03-26T07:57:57.292Z,22.50
2023-03-26T07:58:57.228Z,22.50
2023-03-26T07:59:57.169Z,22.50
2023-03-26T08:00:57.298Z,28.13
2023-03-26T08:01:57.026Z,28.13
2023-03-26T08:02:57.290Z,28.13
2023-03-26T08:03:57.095Z,28.13
2023-03-26T08:04:56.907Z,33.75
2023-03-26T08:05:56.766Z,33.75
2023-03-26T08:06:56.693Z,33.75
2023-03-26T08:07:56.623Z,33.75
2023-03-26T08:08:56.568Z,28.13
2023-03-26T08:09:56.491Z,28.13
2023-03-26T08:10:56.621Z,28.13
2023-03-26T08:11:56.358Z,22.50
2023-03-26T08:12:56.294Z,22.50
2023-03-26T08:13:56.223Z,16.88
2023-03-26T08:14:56.160Z,16.88
2023-03-26T08:15:56.131Z,22.50
2023-03-26T08:16:56.023Z,22.50
2023-03-26T08:17:55.973Z,22.50
2023-03-26T08:18:55.896Z,22.50
2023-03-26T08:19:55.833Z,22.50
2023-03-26T08:20:55.850Z,22.50
2023-03-26T08:21:55.685Z,22.50
2023-03-26T08:22:55.621Z,28.13
2023-03-26T08:23:55.557Z,28.13
2023-03-26T08:24:55.507Z,28.13
2023-03-26T08:25:55.415Z,28.13
2023-03-26T08:26:55.355Z,22.50
2023-03-26T08:27:55.283Z,22.50
2023-03-26T08:28:55.217Z,16.88
2023-03-26T08:29:55.157Z,16.88
2023-03-26T08:30:55.464Z,16.88
2023-03-26T08:31:55.015Z,16.88
2023-03-26T08:32:54.993Z,16.88
2023-03-26T08:33:54.883Z,16.88
2023-03-26T08:34:54.823Z,16.88
2023-03-26T08:35:54.770Z,22.50
2023-03-26T08:36:54.675Z,22.50
2023-03-26T08:37:54.628Z,22.50
2023-03-26T08:38:54.575Z,22.50
2023-03-26T08:39:54.491Z,28.13
2023-03-26T08:40:54.570Z,33.75
2023-03-26T08:41:54.348Z,39.38
2023-03-26T08:42:54.281Z,39.38
2023-03-26T08:43:55.612Z,33.75
2023-03-26T08:44:54.140Z,33.75
2023-03-26T08:45:54.092Z,33.75
2023-03-26T08:46:54.065Z,33.75
2023-03-26T08:47:54.002Z,28.13
2023-03-26T08:48:53.883Z,22.50
2023-03-26T08:49:53.812Z,22.50
2023-03-26T08:50:54.113Z,22.50
2023-03-26T08:51:53.678Z,28.13
2023-03-26T08:52:53.615Z,28.13
2023-03-26T08:53:53.543Z,22.50
2023-03-26T08:54:54.286Z,22.50
2023-03-26T08:55:53.421Z,22.50
2023-03-26T08:56:53.367Z,22.50
2023-03-26T08:57:53.274Z,22.50
2023-03-26T08:58:53.229Z,22.50
2023-03-26T08:59:53.137Z,28.13
2023-03-26T09:00:53.513Z,28.13
2023-03-26T09:01:53.065Z,28.13
2023-03-26T09:02:53.029Z,33.75
2023-03-26T09:03:52.955Z,33.75
2023-03-26T09:04:52.819Z,33.75
2023-03-26T09:05:52.742Z,28.13
2023-03-26T09:06:52.677Z,28.13
2023-03-26T09:07:52.614Z,22.50
2023-03-26T09:08:53.854Z,22.50
2023-03-26T09:09:52.491Z,22.50
2023-03-26T09:10:52.439Z,22.50
2023-03-26T09:11:52.336Z,22.50
2023-03-26T09:12:52.268Z,22.50
2023-03-26T09:13:52.216Z,16.88
2023-03-26T09:14:52.140Z,16.88
2023-03-26T09:15:52.089Z,16.88
2023-03-26T09:16:52.012Z,22.50
2023-03-26T09:17:51.957Z,28.13
2023-03-26T09:18:51.883Z,33.75
2023-03-26T09:19:51.820Z,39.38
2023-03-26T09:20:51.733Z,39.38
2023-03-26T09:21:51.668Z,33.75
2023-03-26T09:22:51.596Z,22.50
2023-03-26T09:23:51.532Z,22.50
2023-03-26T09:24:51.476Z,22.50
2023-03-26T09:25:51.397Z,22.50
2023-03-26T09:26:51.384Z,22.50
2023-03-26T09:27:51.267Z,22.50
2023-03-26T09:28:51.200Z,22.50
2023-03-26T09:29:51.137Z,28.13
2023-03-26T09:30:51.080Z,22.50
2023-03-26T09:31:51.016Z,28.13
2023-03-26T09:32:51.042Z,22.50
2023-03-26T09:33:50.865Z,28.13
2023-03-26T09:34:50.808Z,33.75
2023-03-26T09:35:50.775Z,33.75
2023-03-26T09:36:50.658Z,33.75
2023-03-26T09:37:56.617Z,33.75
2023-03-26T09:38:50.524Z,28.13
2023-03-26T09:39:50.467Z,28.13
2023-03-26T09:40:52.408Z,33.75
2023-03-26T09:41:50.353Z,33.75
2023-03-26T09:42:50.258Z,28.13
2023-03-26T09:43:50.213Z,39.38
2023-03-26T09:44:50.119Z,56.25
2023-03-26T09:45:50.096Z,61.88
2023-03-26T09:46:49.987Z,56.25
2023-03-26T09:47:50.016Z,33.75
2023-03-26T09:48:49.849Z,33.75
2023-03-26T09:49:49.785Z,33.75
2023-03-26T09:50:49.716Z,28.13
2023-03-26T09:51:49.658Z,28.13
2023-03-26T09:52:49.614Z,28.13
2023-03-26T09:53:49.516Z,33.75
2023-03-26T09:54:49.444Z,45.00
2023-03-26T09:55:49.381Z,45.00
2023-03-26T09:56:49.321Z,39.38
2023-03-26T09:57:49.416Z,39.38
2023-03-26T09:58:49.174Z,33.75
2023-03-26T09:59:49.115Z,33.75
2023-03-26T10:00:49.085Z,39.38
2023-03-26T10:01:48.971Z,39.38
2023-03-26T10:02:48.918Z,33.75
2023-03-26T10:03:48.836Z,39.38
2023-03-26T10:04:48.801Z,45.00
2023-03-26T10:05:48.704Z,67.50
2023-03-26T10:06:48.639Z,84.38
2023-03-26T10:07:48.571Z,95.63
2023-03-26T10:08:48.507Z,112.50
2023-03-26T10:09:48.433Z,129.38
2023-03-26T10:10:48.368Z,135.00
2023-03-26T10:11:48.296Z,112.50
2023-03-26T10:12:48.232Z,118.13
2023-03-26T10:13:48.167Z,157.50
2023-03-26T10:14:48.098Z,140.63
2023-03-26T10:15:48.040Z,106.88
2023-03-26T10:16:48.032Z,73.13
2023-03-26T10:17:47.929Z,61.88
2023-03-26T10:18:47.837Z,50.63
2023-03-26T10:19:47.769Z,45.00
2023-03-26T10:20:47.700Z,39.38
2023-03-26T10:21:47.706Z,33.75
2023-03-26T10:22:47.565Z,39.38
2023-03-26T10:23:47.501Z,33.75
2023-03-26T10:24:47.523Z,33.75
2023-03-26T10:25:47.365Z,33.75
2023-03-26T10:27:08.370Z,28.13
2023-03-26T10:27:47.230Z,33.75
2023-03-26T10:28:47.198Z,33.75
2023-03-26T10:29:47.096Z,39.38
2023-03-26T10:30:47.067Z,45.00
2023-03-26T10:31:46.973Z,50.63
2023-03-26T10:32:46.931Z,56.25
2023-03-26T10:33:46.832Z,61.88
2023-03-26T10:34:46.778Z,56.25
2023-03-26T10:35:46.707Z,45.00
2023-03-26T10:36:46.630Z,39.38
2023-03-26T10:37:46.558Z,45.00
2023-03-26T10:38:46.521Z,45.00
2023-03-26T10:39:46.433Z,50.63
2023-03-26T10:40:57.757Z,50.63
2023-03-26T10:42:53.481Z,50.63
2023-03-26T10:44:05.280Z,56.25
2023-03-26T11:11:47.885Z,157.50
2023-03-26T11:40:38.549Z,123.75
2023-03-26T11:41:38.616Z,112.50
2023-03-26T16:57:51.303Z,11.25
2023-03-26T18:35:20.560Z,0.00
2023-03-26T18:36:22.088Z,0.00
2023-03-26T20:55:34.709Z,0.00
2023-03-26T20:56:34.745Z,0.00
2023-03-26T21:18:20.370Z,0.00
2023-03-26T21:19:20.447Z,0.00
2023-03-26T21:20:20.507Z,0.00
2023-03-26T21:21:21.434Z,0.00
2023-03-26T21:22:20.288Z,0.00
2023-03-26T21:23:19.449Z,0.00
2023-03-26T21:24:19.332Z,0.00
2023-03-26T21:25:17.912Z,0.00
2023-03-26T21:26:17.728Z,0.00
2023-03-26T21:27:17.708Z,0.00
2023-03-26T21:28:17.608Z,0.00
2023-03-26T21:29:17.577Z,0.00
2023-03-26T21:30:17.453Z,0.00
2023-03-26T21:31:17.411Z,0.00
2023-03-26T21:32:17.323Z,0.00
2023-03-26T21:33:17.256Z,0.00
2023-03-26T21:34:17.198Z,0.00
2023-03-26T21:35:17.196Z,0.00
2023-03-26T21:36:17.118Z,0.00
2023-03-26T21:37:16.988Z,0.00
2023-03-26T21:38:16.928Z,0.00
2023-03-26T21:39:16.852Z,0.00
2023-03-26T21:40:16.973Z,0.00
2023-03-26T21:41:16.719Z,0.00
2023-03-26T21:42:16.650Z,0.00
2023-03-26T21:43:16.585Z,0.00
2023-03-26T21:44:16.519Z,0.00
2023-03-26T21:45:16.445Z,0.00
2023-03-26T21:46:16.415Z,0.00
2023-03-26T21:47:16.313Z,0.00
2023-03-26T21:48:16.242Z,0.00
2023-03-26T21:49:16.173Z,0.00
2023-03-26T21:50:16.117Z,0.00
2023-03-26T21:51:16.036Z,0.00
2023-03-26T21:52:15.973Z,0.00
2023-03-26T21:53:15.910Z,0.00
2023-03-26T21:54:15.835Z,0.00
2023-03-26T21:55:15.769Z,0.00
2023-03-26T21:56:15.698Z,0.00
2023-03-26T21:57:15.746Z,0.00
2023-03-26T21:58:15.582Z,0.00
2023-03-26T21:59:15.534Z,0.00
2023-03-26T22:00:15.565Z,0.00
2023-03-26T22:01:15.399Z,0.00
2023-03-26T22:02:15.297Z,0.00
2023-03-26T22:03:15.288Z,0.00
2023-03-26T22:04:15.160Z,0.00
2023-03-26T22:05:15.110Z,0.00
2023-03-26T22:06:15.026Z,0.00
2023-03-26T22:07:14.965Z,0.00
2023-03-26T22:08:14.890Z,0.00
2023-03-26T22:09:18.426Z,0.00
2023-03-26T22:10:14.755Z,0.00
2023-03-26T22:11:14.688Z,0.00
2023-03-26T22:12:14.623Z,0.00
2023-03-26T22:13:14.552Z,0.00
2023-03-26T22:14:14.489Z,0.00
2023-03-26T22:15:14.424Z,0.00
2023-03-26T22:16:14.382Z,0.00
2023-03-26T22:17:14.280Z,0.00
2023-03-26T22:18:14.235Z,0.00
2023-03-26T22:19:14.153Z,0.00
2023-03-26T22:20:14.094Z,0.00
2023-03-26T22:21:14.017Z,0.00
2023-03-26T22:22:13.949Z,0.00
2023-03-26T22:23:13.877Z,0.00
2023-03-26T22:24:13.809Z,0.00
2023-03-26T22:25:13.741Z,0.00
2023-03-26T22:26:13.669Z,0.00
2023-03-26T22:27:13.614Z,0.00
2023-03-26T22:28:13.539Z,0.00
2023-03-26T22:29:13.473Z,0.00
2023-03-26T22:30:13.409Z,0.00
2023-03-26T22:31:13.360Z,0.00
2023-03-26T22:32:13.273Z,0.00
2023-03-26T22:33:13.221Z,0.00
2023-03-26T22:34:13.133Z,0.00
2023-03-26T22:35:13.094Z,0.00
2023-03-26T22:36:23.394Z,0.00
2023-03-26T22:37:12.928Z,0.00
2023-03-26T22:38:12.915Z,0.00
2023-03-26T22:39:12.893Z,0.00
2023-03-26T22:40:12.735Z,0.00
2023-03-26T22:41:12.660Z,0.00
2023-03-26T22:42:12.591Z,0.00
2023-03-26T22:43:12.519Z,0.00
2023-03-26T22:44:19.767Z,0.00
2023-03-26T22:45:12.410Z,0.00
2023-03-26T22:46:12.359Z,0.00
2023-03-26T22:47:12.254Z,0.00
2023-03-26T22:48:12.200Z,0.00
2023-03-26T22:49:12.113Z,0.00
2023-03-26T22:50:12.061Z,0.00
2023-03-26T22:51:11.979Z,0.00
2023-03-26T22:52:11.924Z,0.00
2023-03-26T22:53:11.861Z,0.00
2023-03-26T22:54:11.787Z,0.00
2023-03-26T22:55:11.737Z,0.00
2023-03-26T22:56:11.659Z,0.00
2023-03-26T22:57:11.616Z,0.00
2023-03-26T22:58:11.505Z,0.00
2023-03-26T22:59:11.435Z,0.00
2023-03-26T23:00:11.367Z,0.00
2023-03-26T23:01:11.303Z,0.00
2023-03-26T23:02:11.247Z,0.00
2023-03-26T23:03:11.200Z,0.00
2023-03-26T23:04:11.135Z,0.00
2023-03-26T23:05:11.030Z,0.00
2023-03-26T23:06:10.973Z,0.00
2023-03-26T23:07:10.893Z,0.00
2023-03-26T23:08:10.826Z,0.00
2023-03-26T23:09:10.757Z,0.00
2023-03-26T23:10:10.691Z,0.00
2023-03-26T23:11:10.618Z,0.00
2023-03-26T23:12:10.559Z,0.00
2023-03-26T23:13:10.494Z,0.00
2023-03-26T23:14:10.418Z,0.00
2023-03-26T23:15:10.350Z,0.00
2023-03-26T23:16:10.360Z,0.00
2023-03-26T23:17:10.215Z,0.00
2023-03-26T23:18:10.193Z,0.00
2023-03-26T23:19:10.084Z,0.00
2023-03-26T23:20:10.013Z,0.00
2023-03-26T23:21:11.987Z,0.00
2023-03-26T23:22:09.875Z,0.00
2023-03-26T23:23:09.907Z,0.00
2023-03-26T23:24:09.741Z,0.00
2023-03-26T23:25:09.675Z,0.00
2023-03-26T23:26:09.604Z,0.00
2023-03-26T23:27:09.540Z,0.00
2023-03-26T23:28:09.470Z,0.00
2023-03-26T23:29:09.403Z,0.00
2023-03-26T23:30:09.335Z,0.00
2023-03-26T23:31:09.328Z,0.00
2023-03-26T23:32:23.732Z,0.00
2023-03-26T23:33:09.186Z,0.00
2023-03-26T23:34:09.063Z,0.00
2023-03-26T23:35:09.000Z,0.00